Time;durP1;ratioP1;P1;durP2;ratioP2;P2;SDS_P1;SDS_P2;PMS_P1;PMS_P2;Temp;Humidity;BMP_temperature;BMP_pressure;BME280_temperature;BME280_humidity;BME280_pressure;Samples;Min_cycle;Max_cycle;Signal;HPM_P1;HPM_P2
2023/12/01 00:01:21;;;;;;;;;;;22.10;50.60;;;;;;5076153;28;19912;-41
2023/12/01 00:03:48;;;;;;;;;;;22.10;50.60;;;;;;5082472;28;19968;-41
2023/12/01 00:06:14;;;;;;;;;;;22.00;50.50;;;;;;5071380;28;19991;-40
2023/12/01 00:08:40;;;;;;;;;;;22.00;50.60;;;;;;5074153;28;19927;-41
2023/12/01 00:11:06;;;;;;;;;;;21.90;50.40;;;;;;5080284;28;19912;-41
2023/12/01 00:13:31;;;;;;;;;;;22.00;50.70;;;;;;5070759;28;19908;-40
2023/12/01 00:15:57;;;;;;;;;;;22.10;50.80;;;;;;5075987;28;19920;-41
2023/12/01 00:18:23;;;;;;;;;;;22.10;50.90;;;;;;5073620;28;19917;-41
2023/12/01 00:20:49;;;;;;;;;;;22.10;50.80;;;;;;5075416;28;19912;-41
2023/12/01 00:23:15;;;;;;;;;;;22.10;50.80;;;;;;5079762;28;20695;-40
2023/12/01 00:25:41;;;;;;;;;;;22.00;50.70;;;;;;5088578;28;19912;-41
2023/12/01 00:28:07;;;;;;;;;;;22.00;50.80;;;;;;5086582;28;19911;-42
2023/12/01 00:30:33;;;;;;;;;;;21.90;50.60;;;;;;5084634;28;19923;-38
2023/12/01 00:32:59;;;;;;;;;;;22.00;50.80;;;;;;5089424;28;19912;-39
2023/12/01 00:35:25;;;;;;;;;;;22.20;51.00;;;;;;5087312;28;20369;-40
2023/12/01 00:37:51;;;;;;;;;;;22.20;51.30;;;;;;5075891;28;19917;-41
2023/12/01 00:40:17;;;;;;;;;;;22.20;51.40;;;;;;5079760;28;19915;-40
2023/12/01 00:42:42;;;;;;;;;;;22.20;51.50;;;;;;5072560;28;20401;-40
2023/12/01 00:45:09;;;;;;;;;;;22.20;51.50;;;;;;5076165;28;19927;-41
2023/12/01 00:47:35;;;;;;;;;;;22.10;51.70;;;;;;5082529;28;19917;-41
2023/12/01 00:50:00;;;;;;;;;;;22.10;51.80;;;;;;5083157;28;19935;-40
2023/12/01 00:52:26;;;;;;;;;;;22.00;51.70;;;;;;5074934;28;19975;-39
2023/12/01 00:54:53;;;;;;;;;;;22.10;52.00;;;;;;5080894;28;19995;-42
2023/12/01 00:57:18;;;;;;;;;;;22.10;52.10;;;;;;5080419;28;19934;-43
2023/12/01 00:59:44;;;;;;;;;;;22.20;53.00;;;;;;5080994;28;19964;-45
2023/12/01 01:02:10;;;;;;;;;;;22.20;53.20;;;;;;5084209;28;19912;-44
2023/12/01 01:04:36;;;;;;;;;;;22.20;53.70;;;;;;5077096;28;19920;-43
2023/12/01 01:07:03;;;;;;;;;;;22.20;53.60;;;;;;5079810;28;19947;-42
2023/12/01 01:09:29;;;;;;;;;;;22.10;54.20;;;;;;5083761;28;19954;-42
2023/12/01 01:11:54;;;;;;;;;;;22.10;53.80;;;;;;5076116;28;19917;-41
2023/12/01 01:14:21;;;;;;;;;;;22.10;52.90;;;;;;5076585;28;19912;-40
2023/12/01 01:16:47;;;;;;;;;;;22.20;52.40;;;;;;5077719;28;19917;-40
2023/12/01 01:19:14;;;;;;;;;;;22.30;52.70;;;;;;5080411;28;20015;-40
2023/12/01 01:21:39;;;;;;;;;;;22.30;53.60;;;;;;5081028;28;19912;-42
2023/12/01 01:24:06;;;;;;;;;;;22.20;53.60;;;;;;5072306;28;20014;-42
2023/12/01 01:26:32;;;;;;;;;;;22.20;53.70;;;;;;5074740;28;19908;-39
2023/12/01 01:28:59;;;;;;;;;;;22.20;53.70;;;;;;5077248;28;19920;-40
2023/12/01 01:31:25;;;;;;;;;;;22.20;54.10;;;;;;5081736;28;19924;-41
2023/12/01 01:33:54;;;;;;;;;;;22.20;54.70;;;;;;5078324;28;20428;-39
2023/12/01 01:36:20;;;;;;;;;;;22.20;54.90;;;;;;5075077;28;19920;-39
2023/12/01 01:38:46;;;;;;;;;;;22.30;54.50;;;;;;5077476;28;20043;-39
2023/12/01 01:41:13;;;;;;;;;;;22.30;54.80;;;;;;5079482;28;19908;-39
2023/12/01 01:43:39;;;;;;;;;;;22.30;55.10;;;;;;5079153;28;19923;-38
2023/12/01 01:46:06;;;;;;;;;;;22.20;55.00;;;;;;5082033;28;19947;-38
2023/12/01 01:48:32;;;;;;;;;;;22.20;54.90;;;;;;5082893;28;19904;-40
2023/12/01 01:50:58;;;;;;;;;;;22.20;54.70;;;;;;5080075;28;19912;-41
2023/12/01 01:53:25;;;;;;;;;;;22.20;55.30;;;;;;5075556;28;20385;-40
2023/12/01 01:55:52;;;;;;;;;;;22.30;55.10;;;;;;5081207;28;19971;-42
2023/12/01 01:58:21;;;;;;;;;;;22.30;54.80;;;;;;5080647;28;19908;-43
2023/12/01 02:00:49;;;;;;;;;;;22.30;54.70;;;;;;5090960;28;19932;-41
2023/12/01 02:03:19;;;;;;;;;;;22.30;54.70;;;;;;5084033;28;19908;-41
2023/12/01 02:05:47;;;;;;;;;;;22.20;54.70;;;;;;5083805;28;19920;-40
2023/12/01 02:08:20;;;;;;;;;;;22.20;54.40;;;;;;5082313;28;20258;-39
2023/12/01 02:10:46;;;;;;;;;;;22.10;54.40;;;;;;5079655;28;19916;-39
2023/12/01 02:13:14;;;;;;;;;;;22.10;54.10;;;;;;5075977;28;19939;-41
2023/12/01 02:15:41;;;;;;;;;;;22.10;54.10;;;;;;5080465;28;22625;-48
2023/12/01 02:18:20;;;;;;;;;;;22.10;54.60;;;;;;5081105;28;20037;-40
2023/12/01 02:20:46;;;;;;;;;;;22.20;54.50;;;;;;5081861;28;20004;-43
2023/12/01 02:23:12;;;;;;;;;;;22.20;54.00;;;;;;5077694;28;19908;-43
2023/12/01 02:25:38;;;;;;;;;;;22.20;53.90;;;;;;5077911;28;20268;-43
2023/12/01 02:28:04;;;;;;;;;;;22.10;53.30;;;;;;5082601;28;19984;-44
2023/12/01 02:30:30;;;;;;;;;;;22.00;53.10;;;;;;5080269;28;19972;-42
2023/12/01 02:32:57;;;;;;;;;;;22.00;52.90;;;;;;5083291;28;19912;-40
2023/12/01 02:35:29;;;;;;;;;;;22.00;52.90;;;;;;5076230;28;19984;-45
2023/12/01 02:37:59;;;;;;;;;;;22.00;53.10;;;;;;5076307;28;19912;-45
2023/12/01 02:40:25;;;;;;;;;;;22.00;53.10;;;;;;5077002;28;19916;-44
2023/12/01 02:42:52;;;;;;;;;;;21.90;52.90;;;;;;5079739;28;19912;-45
2023/12/01 02:45:19;;;;;;;;;;;21.90;52.80;;;;;;5080540;28;20564;-47
2023/12/01 02:47:47;;;;;;;;;;;21.80;52.70;;;;;;5080881;28;19916;-43
2023/12/01 02:50:14;;;;;;;;;;;21.80;52.80;;;;;;5078300;28;19909;-41
2023/12/01 02:52:41;;;;;;;;;;;21.90;52.70;;;;;;5080504;28;19999;-41
2023/12/01 02:55:08;;;;;;;;;;;22.00;52.40;;;;;;5076864;28;19913;-40
2023/12/01 02:57:35;;;;;;;;;;;22.20;52.20;;;;;;5074471;28;19913;-42
2023/12/01 03:00:05;;;;;;;;;;;22.30;52.00;;;;;;5078304;28;19927;-42
2023/12/01 03:02:33;;;;;;;;;;;22.40;51.90;;;;;;5080371;28;19909;-41
2023/12/01 03:04:59;;;;;;;;;;;22.50;51.70;;;;;;5080267;28;19918;-42
2023/12/01 03:07:26;;;;;;;;;;;22.60;51.70;;;;;;5080113;28;19908;-41
2023/12/01 03:09:53;;;;;;;;;;;22.70;51.60;;;;;;5076539;28;19912;-41
2023/12/01 03:12:20;;;;;;;;;;;22.70;51.80;;;;;;5082252;28;19943;-41
2023/12/01 03:14:47;;;;;;;;;;;22.60;52.10;;;;;;5079347;28;19912;-41
2023/12/01 03:17:14;;;;;;;;;;;22.50;52.00;;;;;;5077898;28;19980;-43
2023/12/01 03:19:41;;;;;;;;;;;22.40;52.00;;;;;;5077116;28;20998;-42
2023/12/01 03:22:08;;;;;;;;;;;22.40;51.40;;;;;;5072154;28;19919;-41
2023/12/01 03:24:39;;;;;;;;;;;22.40;51.30;;;;;;5077081;28;19912;-40
2023/12/01 03:27:05;;;;;;;;;;;22.30;51.70;;;;;;5077737;28;19962;-42
2023/12/01 03:29:33;;;;;;;;;;;22.20;51.50;;;;;;5078271;28;19916;-41
2023/12/01 03:31:59;;;;;;;;;;;22.20;51.50;;;;;;5072371;28;19912;-41
2023/12/01 03:34:26;;;;;;;;;;;22.10;51.70;;;;;;5075558;28;19919;-39
2023/12/01 03:36:53;;;;;;;;;;;22.10;51.90;;;;;;5077121;28;19935;-40
2023/12/01 03:39:19;;;;;;;;;;;22.00;51.90;;;;;;5078903;28;19920;-41
2023/12/01 03:41:48;;;;;;;;;;;22.00;51.70;;;;;;5077243;28;19912;-42
2023/12/01 03:44:15;;;;;;;;;;;22.10;51.20;;;;;;5079607;28;19920;-42
2023/12/01 03:46:42;;;;;;;;;;;22.10;51.10;;;;;;5075035;28;19991;-42
2023/12/01 03:49:08;;;;;;;;;;;22.00;51.40;;;;;;5081302;28;19908;-41
2023/12/01 03:51:35;;;;;;;;;;;22.00;51.50;;;;;;5081490;28;19924;-41
2023/12/01 03:54:01;;;;;;;;;;;21.90;51.60;;;;;;5078258;28;19913;-41
2023/12/01 03:56:28;;;;;;;;;;;21.90;51.60;;;;;;5081602;28;19912;-41
2023/12/01 03:58:55;;;;;;;;;;;22.00;51.60;;;;;;5083166;28;19920;-41
2023/12/01 04:01:21;;;;;;;;;;;22.20;51.40;;;;;;5080477;28;19912;-41
2023/12/01 04:03:48;;;;;;;;;;;22.10;51.30;;;;;;5082963;28;19909;-41
2023/12/01 04:06:14;;;;;;;;;;;22.10;51.30;;;;;;5079405;28;19978;-42
2023/12/01 04:08:40;;;;;;;;;;;22.00;51.60;;;;;;5079025;28;19913;-42
2023/12/01 04:11:07;;;;;;;;;;;22.00;51.80;;;;;;5079904;28;19958;-41
2023/12/01 04:13:33;;;;;;;;;;;22.00;51.60;;;;;;5083595;28;19943;-41
2023/12/01 04:15:59;;;;;;;;;;;22.00;51.40;;;;;;5060085;28;20368;-41
2023/12/01 04:18:29;;;;;;;;;;;22.00;51.40;;;;;;5083314;28;19980;-42
2023/12/01 04:20:55;;;;;;;;;;;22.00;51.10;;;;;;5096147;28;19955;-41
2023/12/01 04:23:22;;;;;;;;;;;22.00;51.30;;;;;;5081809;28;19912;-41
2023/12/01 04:25:48;;;;;;;;;;;21.90;51.30;;;;;;5079424;28;20325;-41
2023/12/01 04:28:15;;;;;;;;;;;21.80;51.40;;;;;;5078326;28;19942;-41
2023/12/01 04:30:42;;;;;;;;;;;21.90;51.50;;;;;;5083498;28;19912;-41
2023/12/01 04:33:07;;;;;;;;;;;21.90;51.50;;;;;;5080834;28;19908;-40
2023/12/01 04:35:34;;;;;;;;;;;22.00;51.20;;;;;;5080871;28;19972;-40
2023/12/01 04:38:00;;;;;;;;;;;22.10;51.20;;;;;;5077030;28;20441;-40
2023/12/01 04:40:29;;;;;;;;;;;22.20;51.20;;;;;;5075405;28;19924;-44
2023/12/01 04:42:55;;;;;;;;;;;22.30;51.00;;;;;;5077681;28;19916;-42
2023/12/01 04:45:22;;;;;;;;;;;22.40;51.20;;;;;;5072119;28;19921;-42
2023/12/01 04:47:51;;;;;;;;;;;22.40;51.30;;;;;;5078313;28;19944;-41
2023/12/01 04:50:18;;;;;;;;;;;22.40;51.50;;;;;;5092540;28;19952;-40
2023/12/01 04:52:52;;;;;;;;;;;22.30;51.00;;;;;;5080333;28;19912;-40
2023/12/01 04:55:19;;;;;;;;;;;22.30;50.90;;;;;;5082148;28;19931;-38
2023/12/01 04:57:45;;;;;;;;;;;22.20;50.80;;;;;;5081114;28;19916;-41
2023/12/01 05:00:21;;;;;;;;;;;22.10;51.10;;;;;;5080773;28;19921;-40
2023/12/01 05:02:51;;;;;;;;;;;22.10;51.10;;;;;;5072335;28;19912;-39
2023/12/01 05:05:27;;;;;;;;;;;22.00;51.20;;;;;;5079958;28;19908;-39
2023/12/01 05:07:56;;;;;;;;;;;22.00;51.40;;;;;;5081316;28;20277;-39
2023/12/01 05:10:22;;;;;;;;;;;22.00;51.50;;;;;;5078250;28;19912;-39
2023/12/01 05:12:51;;;;;;;;;;;22.00;51.40;;;;;;5078656;28;19940;-39
2023/12/01 05:15:18;;;;;;;;;;;22.00;51.40;;;;;;5080097;28;19909;-41
2023/12/01 05:17:45;;;;;;;;;;;21.90;51.70;;;;;;5056833;28;19912;-41
2023/12/01 05:20:15;;;;;;;;;;;21.80;51.00;;;;;;5075343;28;20014;-40
2023/12/01 05:23:02;;;;;;;;;;;21.90;51.50;;;;;;5079246;28;19908;-39
2023/12/01 05:25:32;;;;;;;;;;;21.90;51.50;;;;;;5082611;28;19912;-40
2023/12/01 05:27:58;;;;;;;;;;;21.90;51.60;;;;;;5078122;28;19955;-40
2023/12/01 05:30:25;;;;;;;;;;;21.90;51.20;;;;;;5077160;28;20825;-39
2023/12/01 05:32:51;;;;;;;;;;;22.10;51.10;;;;;;5073494;28;19913;-39
2023/12/01 05:35:17;;;;;;;;;;;22.20;51.10;;;;;;5078690;28;19908;-40
2023/12/01 05:37:50;;;;;;;;;;;22.30;51.10;;;;;;5078822;28;19955;-40
2023/12/01 05:40:16;;;;;;;;;;;22.40;50.90;;;;;;5077978;28;19924;-39
2023/12/01 05:42:43;;;;;;;;;;;22.30;51.00;;;;;;5082514;28;19919;-40
2023/12/01 05:45:12;;;;;;;;;;;22.30;51.00;;;;;;5080662;28;19920;-40
2023/12/01 05:47:42;;;;;;;;;;;22.30;50.80;;;;;;5079174;28;19912;-40
2023/12/01 05:50:17;;;;;;;;;;;22.20;50.80;;;;;;5076973;28;19938;-40
2023/12/01 05:52:45;;;;;;;;;;;22.10;51.10;;;;;;5090199;28;19917;-40
2023/12/01 05:55:17;;;;;;;;;;;22.00;51.00;;;;;;5082352;28;19912;-40
2023/12/01 05:57:46;;;;;;;;;;;22.00;51.10;;;;;;5065700;28;19916;-43
2023/12/01 06:00:13;;;;;;;;;;;22.10;51.10;;;;;;5083480;28;19923;-40
2023/12/01 06:02:40;;;;;;;;;;;22.10;51.20;;;;;;5078564;28;19908;-40
2023/12/01 06:05:06;;;;;;;;;;;22.10;51.10;;;;;;5078983;28;19912;-41
2023/12/01 06:07:32;;;;;;;;;;;22.10;51.00;;;;;;5079908;28;19915;-38
2023/12/01 06:09:58;;;;;;;;;;;22.00;51.00;;;;;;5080793;28;19984;-39
2023/12/01 06:12:24;;;;;;;;;;;21.90;51.10;;;;;;5081389;28;19908;-39
2023/12/01 06:14:53;;;;;;;;;;;21.90;51.20;;;;;;5082283;28;19912;-40
2023/12/01 06:17:18;;;;;;;;;;;22.00;51.30;;;;;;5082771;28;19919;-39
2023/12/01 06:19:44;;;;;;;;;;;22.00;51.40;;;;;;5083458;28;19948;-40
2023/12/01 06:22:10;;;;;;;;;;;22.00;51.20;;;;;;5065073;28;19913;-40
2023/12/01 06:24:36;;;;;;;;;;;22.00;51.20;;;;;;5080234;28;19966;-40
2023/12/01 06:27:04;;;;;;;;;;;21.90;51.10;;;;;;5082942;28;19908;-40
2023/12/01 06:29:30;;;;;;;;;;;22.00;51.20;;;;;;5082144;28;20005;-40
2023/12/01 06:31:56;;;;;;;;;;;22.20;50.90;;;;;;5083394;28;19912;-40
2023/12/01 06:34:22;;;;;;;;;;;22.30;51.10;;;;;;5080239;28;19912;-40
2023/12/01 06:36:48;;;;;;;;;;;22.30;51.20;;;;;;5074873;28;19908;-41
2023/12/01 06:39:13;;;;;;;;;;;22.30;51.10;;;;;;5081716;28;19916;-41
2023/12/01 06:41:41;;;;;;;;;;;22.20;50.80;;;;;;5079930;28;19981;-40
2023/12/01 06:44:07;;;;;;;;;;;22.20;51.10;;;;;;5082039;28;19988;-39
2023/12/01 06:46:33;;;;;;;;;;;22.10;51.20;;;;;;5079900;28;19916;-39
2023/12/01 06:48:59;;;;;;;;;;;22.00;51.10;;;;;;5080291;28;19947;-39
2023/12/01 06:51:25;;;;;;;;;;;22.00;51.30;;;;;;5082553;28;19962;-42
2023/12/01 06:53:51;;;;;;;;;;;22.10;51.30;;;;;;5082985;28;19911;-40
2023/12/01 06:56:17;;;;;;;;;;;22.10;51.50;;;;;;5077457;28;20278;-39
2023/12/01 06:58:43;;;;;;;;;;;22.10;51.30;;;;;;5075163;28;19924;-39
2023/12/01 07:01:11;;;;;;;;;;;22.00;51.40;;;;;;5082280;28;19908;-41
2023/12/01 07:03:37;;;;;;;;;;;22.00;51.70;;;;;;5081250;28;19912;-39
2023/12/01 07:06:04;;;;;;;;;;;21.90;51.40;;;;;;5077734;28;19912;-41
2023/12/01 07:08:29;;;;;;;;;;;22.00;51.70;;;;;;5075757;28;19909;-40
2023/12/01 07:10:55;;;;;;;;;;;22.00;51.80;;;;;;5081465;28;19928;-39
2023/12/01 07:13:21;;;;;;;;;;;22.00;51.80;;;;;;5080802;28;19919;-39
2023/12/01 07:15:47;;;;;;;;;;;22.10;51.60;;;;;;5076124;28;19915;-39
2023/12/01 07:18:13;;;;;;;;;;;22.00;51.50;;;;;;5082133;28;19908;-39
2023/12/01 07:20:39;;;;;;;;;;;22.10;51.50;;;;;;5079092;28;20454;-40
2023/12/01 07:23:05;;;;;;;;;;;22.30;51.30;;;;;;5075583;28;19923;-39
2023/12/01 07:25:31;;;;;;;;;;;22.40;51.10;;;;;;5085629;28;19908;-38
2023/12/01 07:27:58;;;;;;;;;;;22.40;51.40;;;;;;5085589;28;19912;-38
2023/12/01 07:30:23;;;;;;;;;;;22.40;51.40;;;;;;5086357;28;19908;-39
2023/12/01 07:32:50;;;;;;;;;;;22.40;51.00;;;;;;5080273;28;19909;-39
2023/12/01 07:35:15;;;;;;;;;;;22.30;51.10;;;;;;5078181;28;19912;-39
2023/12/01 07:37:42;;;;;;;;;;;22.20;51.20;;;;;;5085086;28;19942;-39
2023/12/01 07:40:11;;;;;;;;;;;22.20;51.20;;;;;;5065929;28;19944;-39
2023/12/01 07:42:37;;;;;;;;;;;22.20;51.50;;;;;;5082320;28;19912;-39
2023/12/01 07:45:04;;;;;;;;;;;22.20;51.50;;;;;;5080009;28;19924;-38
2023/12/01 07:47:30;;;;;;;;;;;22.20;51.50;;;;;;5083626;28;19970;-39
2023/12/01 07:49:56;;;;;;;;;;;22.20;51.20;;;;;;5077393;28;20381;-39
2023/12/01 07:52:21;;;;;;;;;;;22.20;51.20;;;;;;5084660;28;20289;-39
2023/12/01 07:54:47;;;;;;;;;;;22.10;51.20;;;;;;5084375;28;19965;-39
2023/12/01 07:57:13;;;;;;;;;;;22.10;51.30;;;;;;5083330;28;19971;-39
2023/12/01 07:59:39;;;;;;;;;;;22.10;51.50;;;;;;5084558;28;19920;-40
2023/12/01 08:02:05;;;;;;;;;;;22.10;51.50;;;;;;5082740;28;19955;-40
2023/12/01 08:04:31;;;;;;;;;;;22.20;51.60;;;;;;5084925;28;19913;-38
2023/12/01 08:06:57;;;;;;;;;;;22.20;51.30;;;;;;5078891;28;20491;-38
2023/12/01 08:09:23;;;;;;;;;;;22.10;51.20;;;;;;5061895;28;19908;-39
2023/12/01 08:11:49;;;;;;;;;;;22.10;51.30;;;;;;5082464;28;19916;-39
2023/12/01 08:14:15;;;;;;;;;;;22.10;51.40;;;;;;5078731;28;19916;-38
2023/12/01 08:16:42;;;;;;;;;;;22.30;51.60;;;;;;5080540;28;19919;-39
2023/12/01 08:19:09;;;;;;;;;;;22.40;51.40;;;;;;5077127;28;19927;-39
2023/12/01 08:21:36;;;;;;;;;;;22.40;51.40;;;;;;5065011;28;19912;-39
2023/12/01 08:24:04;;;;;;;;;;;22.40;51.20;;;;;;5083015;28;19909;-38
2023/12/01 08:26:31;;;;;;;;;;;22.40;51.30;;;;;;5068218;28;19909;-38
2023/12/01 08:28:57;;;;;;;;;;;22.30;51.40;;;;;;5075177;28;19952;-38
2023/12/01 08:31:24;;;;;;;;;;;22.20;51.40;;;;;;5080065;28;19913;-40
2023/12/01 08:33:50;;;;;;;;;;;22.20;51.60;;;;;;5081801;28;19913;-40
2023/12/01 08:36:17;;;;;;;;;;;22.30;52.20;;;;;;5075127;28;19912;-39
2023/12/01 08:38:43;;;;;;;;;;;22.30;51.60;;;;;;5084598;28;19968;-39
2023/12/01 08:41:09;;;;;;;;;;;22.30;51.10;;;;;;5055238;28;19924;-38
2023/12/01 08:43:35;;;;;;;;;;;22.30;51.40;;;;;;5081669;28;19924;-39
2023/12/01 08:46:02;;;;;;;;;;;22.30;51.50;;;;;;5087157;28;19959;-40
2023/12/01 08:48:28;;;;;;;;;;;22.20;51.70;;;;;;5082627;28;19908;-39
2023/12/01 08:50:54;;;;;;;;;;;22.20;51.70;;;;;;5082834;28;19909;-39
2023/12/01 08:53:22;;;;;;;;;;;22.20;51.80;;;;;;5082409;28;19961;-39
2023/12/01 08:55:50;;;;;;;;;;;22.30;51.70;;;;;;5083803;28;20372;-40
2023/12/01 08:58:17;;;;;;;;;;;22.30;51.60;;;;;;5076583;28;19995;-39
2023/12/01 09:00:43;;;;;;;;;;;22.30;51.60;;;;;;5076639;28;19922;-41
2023/12/01 09:03:09;;;;;;;;;;;22.20;51.40;;;;;;5084986;28;19919;-39
2023/12/01 09:05:35;;;;;;;;;;;22.30;51.40;;;;;;5083686;28;19912;-39
2023/12/01 09:08:05;;;;;;;;;;;22.50;51.40;;;;;;5077718;28;19920;-39
2023/12/01 09:10:32;;;;;;;;;;;22.60;51.10;;;;;;5079739;28;20451;-39
2023/12/01 09:12:58;;;;;;;;;;;22.60;51.30;;;;;;5080017;28;19912;-39
2023/12/01 09:15:23;;;;;;;;;;;22.60;51.40;;;;;;5079274;28;20384;-39
2023/12/01 09:17:50;;;;;;;;;;;22.60;51.30;;;;;;5080826;28;19939;-40
2023/12/01 09:20:15;;;;;;;;;;;22.50;51.30;;;;;;5078320;28;19930;-39
2023/12/01 09:22:41;;;;;;;;;;;22.40;51.30;;;;;;5080893;28;19935;-40
2023/12/01 09:25:07;;;;;;;;;;;22.40;51.30;;;;;;5078565;28;20266;-40
2023/12/01 09:27:33;;;;;;;;;;;22.30;51.40;;;;;;5081929;28;19919;-40
2023/12/01 09:29:59;;;;;;;;;;;22.40;51.50;;;;;;5081654;28;19912;-40
2023/12/01 09:32:25;;;;;;;;;;;22.40;51.50;;;;;;5081866;28;19916;-40
2023/12/01 09:34:51;;;;;;;;;;;22.40;51.30;;;;;;5080500;28;19912;-40
2023/12/01 09:37:17;;;;;;;;;;;22.40;51.20;;;;;;5082308;28;20039;-40
2023/12/01 09:39:43;;;;;;;;;;;22.30;51.30;;;;;;5080821;28;19935;-40
2023/12/01 09:42:09;;;;;;;;;;;22.20;51.40;;;;;;5082799;28;20021;-39
2023/12/01 09:44:35;;;;;;;;;;;22.30;51.60;;;;;;5080953;28;19920;-39
2023/12/01 09:47:02;;;;;;;;;;;22.30;51.60;;;;;;5081859;28;19923;-40
2023/12/01 09:49:33;;;;;;;;;;;22.40;51.60;;;;;;5097054;28;19955;-40
2023/12/01 09:52:00;;;;;;;;;;;22.30;51.50;;;;;;5079476;28;19943;-41
2023/12/01 09:54:26;;;;;;;;;;;22.30;51.60;;;;;;5082974;28;20006;-41
2023/12/01 09:56:52;;;;;;;;;;;22.30;51.90;;;;;;5083005;28;19955;-39
2023/12/01 09:59:19;;;;;;;;;;;22.20;51.90;;;;;;5082834;28;19983;-39
2023/12/01 10:01:47;;;;;;;;;;;22.20;51.90;;;;;;5063052;28;19912;-40
2023/12/01 10:04:13;;;;;;;;;;;22.30;51.80;;;;;;5080759;28;19919;-39
2023/12/01 10:06:39;;;;;;;;;;;22.40;51.70;;;;;;5080530;28;19913;-41
2023/12/01 10:09:10;;;;;;;;;;;22.50;51.60;;;;;;5083084;28;19935;-41
2023/12/01 10:11:36;;;;;;;;;;;22.50;51.40;;;;;;5064891;28;19912;-40
2023/12/01 10:14:08;;;;;;;;;;;22.40;51.50;;;;;;5065266;28;20365;-40
2023/12/01 10:16:35;;;;;;;;;;;22.40;51.70;;;;;;5077704;28;19920;-40
2023/12/01 10:19:01;;;;;;;;;;;22.30;51.70;;;;;;5081773;28;19920;-40
2023/12/01 10:21:40;;;;;;;;;;;22.40;51.70;;;;;;5080018;28;19917;-40
2023/12/01 10:24:13;;;;;;;;;;;22.40;51.70;;;;;;5078948;28;19919;-40
2023/12/01 10:26:39;;;;;;;;;;;22.40;51.70;;;;;;5079145;28;19931;-41
2023/12/01 10:29:07;;;;;;;;;;;22.40;51.60;;;;;;5082473;28;19912;-39
2023/12/01 10:31:33;;;;;;;;;;;22.30;51.70;;;;;;5074380;28;20353;-40
2023/12/01 10:33:59;;;;;;;;;;;22.30;51.80;;;;;;5092810;28;19979;-42
2023/12/01 10:36:25;;;;;;;;;;;22.20;51.00;;;;;;5063095;28;19956;-40
2023/12/01 10:38:52;;;;;;;;;;;22.30;51.00;;;;;;5076115;28;19926;-39
2023/12/01 10:41:18;;;;;;;;;;;22.30;51.60;;;;;;5095515;28;19984;-41
2023/12/01 10:43:44;;;;;;;;;;;22.30;51.70;;;;;;5062472;28;19952;-40
2023/12/01 10:46:11;;;;;;;;;;;22.30;51.70;;;;;;5080959;28;19919;-40
2023/12/01 10:48:36;;;;;;;;;;;22.30;51.70;;;;;;5095240;28;20007;-40
2023/12/01 10:51:05;;;;;;;;;;;22.20;51.80;;;;;;5081312;28;20280;-39
2023/12/01 10:53:31;;;;;;;;;;;22.20;51.80;;;;;;5080961;28;19919;-40
2023/12/01 10:56:01;;;;;;;;;;;22.40;51.80;;;;;;5087552;28;19913;-39
2023/12/01 10:58:27;;;;;;;;;;;22.50;51.70;;;;;;5079676;28;19912;-40
2023/12/01 11:00:53;;;;;;;;;;;22.40;51.50;;;;;;5080086;28;19946;-40
2023/12/01 11:03:25;;;;;;;;;;;22.40;51.70;;;;;;5077540;28;19916;-40
2023/12/01 11:06:02;;;;;;;;;;;22.40;51.60;;;;;;5080534;28;19916;-40
2023/12/01 11:08:39;;;;;;;;;;;22.30;51.60;;;;;;5080163;28;19916;-40
2023/12/01 11:11:11;;;;;;;;;;;22.20;51.60;;;;;;5077751;28;19917;-39
2023/12/01 11:13:43;;;;;;;;;;;22.30;51.90;;;;;;5076673;28;20482;-40
2023/12/01 11:16:09;;;;;;;;;;;22.30;51.80;;;;;;5068435;28;19924;-41
2023/12/01 11:18:35;;;;;;;;;;;22.30;51.60;;;;;;5088032;28;19916;-40
2023/12/01 11:21:04;;;;;;;;;;;22.30;51.40;;;;;;5074488;28;19912;-40
2023/12/01 11:23:33;;;;;;;;;;;22.20;51.30;;;;;;5074509;28;20623;-40
2023/12/01 11:26:05;;;;;;;;;;;22.20;51.30;;;;;;5076013;28;19966;-40
2023/12/01 11:28:46;;;;;;;;;;;22.10;51.50;;;;;;5080466;28;19912;-40
2023/12/01 11:31:56;;;;;;;;;;;22.10;51.70;;;;;;5076509;28;19919;-41
2023/12/01 11:34:03;;;;;;;;;;;22.10;51.80;;;;;;5075842;28;20382;-38
2023/12/01 11:36:32;;;;;;;;;;;22.20;51.90;;;;;;5078576;28;19908;-39
2023/12/01 11:41:39;;;;;;;;;;;22.30;51.80;;;;;;5069249;28;20004;-36
2023/12/01 11:44:07;;;;;;;;;;;22.40;51.60;;;;;;5045899;28;19924;-37
2023/12/01 11:46:38;;;;;;;;;;;22.60;51.50;;;;;;5066007;28;19917;-37
2023/12/01 11:49:05;;;;;;;;;;;22.60;51.60;;;;;;5077838;28;19978;-37
2023/12/01 11:51:31;;;;;;;;;;;22.60;51.60;;;;;;5087169;28;19939;-37
2023/12/01 11:53:57;;;;;;;;;;;22.50;51.60;;;;;;5071534;28;19931;-37
2023/12/01 11:56:25;;;;;;;;;;;22.50;51.60;;;;;;5076917;28;19925;-37
2023/12/01 11:58:51;;;;;;;;;;;22.50;51.60;;;;;;5074480;28;19924;-37
2023/12/01 12:01:17;;;;;;;;;;;22.40;51.70;;;;;;5071324;28;19908;-37
2023/12/01 12:03:43;;;;;;;;;;;22.40;51.80;;;;;;5070650;28;19919;-38
2023/12/01 12:06:11;;;;;;;;;;;22.30;51.90;;;;;;5069945;28;19944;-38
2023/12/01 12:08:37;;;;;;;;;;;22.30;52.00;;;;;;5070717;28;20003;-38
2023/12/01 12:11:06;;;;;;;;;;;22.40;52.10;;;;;;5077759;28;19909;-38
2023/12/01 12:13:32;;;;;;;;;;;22.40;52.10;;;;;;5080563;28;19931;-38
2023/12/01 12:15:58;;;;;;;;;;;22.40;52.00;;;;;;5083891;28;19912;-38
2023/12/01 12:18:27;;;;;;;;;;;22.40;52.10;;;;;;5091826;28;19951;-38
2023/12/01 12:20:53;;;;;;;;;;;22.30;52.00;;;;;;5081977;28;19919;-38
2023/12/01 12:23:19;;;;;;;;;;;22.30;52.20;;;;;;5088936;28;19912;-39
2023/12/01 12:25:47;;;;;;;;;;;22.30;52.30;;;;;;5057972;28;19937;-38
2023/12/01 12:28:13;;;;;;;;;;;22.30;52.30;;;;;;5085462;28;19912;-38
2023/12/01 12:30:39;;;;;;;;;;;22.30;52.30;;;;;;5094989;28;20802;-38
2023/12/01 12:33:05;;;;;;;;;;;22.40;52.30;;;;;;5085032;28;19916;-38
2023/12/01 12:35:31;;;;;;;;;;;22.30;52.40;;;;;;5073613;28;19920;-38
2023/12/01 12:37:57;;;;;;;;;;;22.30;52.20;;;;;;5077278;28;19955;-38
2023/12/01 12:40:22;;;;;;;;;;;22.20;52.20;;;;;;5076248;28;19924;-38
2023/12/01 12:42:55;;;;;;;;;;;22.20;52.30;;;;;;5078135;28;19913;-38
2023/12/01 12:45:21;;;;;;;;;;;22.40;52.10;;;;;;5098927;28;19920;-39
2023/12/01 12:47:47;;;;;;;;;;;22.50;52.10;;;;;;5073359;28;19915;-39
2023/12/01 12:50:17;;;;;;;;;;;22.50;52.10;;;;;;5077847;28;19912;-38
2023/12/01 12:53:03;;;;;;;;;;;22.50;52.10;;;;;;4993773;28;20075;-38
2023/12/01 12:55:29;;;;;;;;;;;22.50;52.10;;;;;;4989450;28;19965;-38
2023/12/01 12:57:56;;;;;;;;;;;22.40;52.10;;;;;;4997131;28;19917;-38
2023/12/01 13:00:21;;;;;;;;;;;22.40;52.30;;;;;;4992824;28;20387;-38
2023/12/01 13:02:47;;;;;;;;;;;22.30;52.30;;;;;;4995801;28;19994;-38
2023/12/01 13:05:13;;;;;;;;;;;22.30;52.40;;;;;;4992351;28;19914;-38
2023/12/01 13:07:39;;;;;;;;;;;22.30;52.50;;;;;;4996768;28;19913;-38
2023/12/01 13:10:05;;;;;;;;;;;22.40;52.50;;;;;;5000831;28;19920;-38
2023/12/01 13:12:31;;;;;;;;;;;22.40;52.30;;;;;;4992662;28;20394;-38
2023/12/01 13:14:57;;;;;;;;;;;22.40;52.90;;;;;;4996664;28;20461;-38
2023/12/01 13:17:23;;;;;;;;;;;22.30;53.00;;;;;;4985848;28;19917;-37
2023/12/01 13:19:49;;;;;;;;;;;22.30;53.00;;;;;;4995544;28;20051;-38
2023/12/01 13:22:15;;;;;;;;;;;22.20;53.00;;;;;;4991160;28;19981;-38
2023/12/01 13:24:41;;;;;;;;;;;22.30;53.00;;;;;;4997746;28;19918;-37
2023/12/01 13:27:07;;;;;;;;;;;22.30;52.90;;;;;;4993666;28;20020;-35
2023/12/01 13:29:33;;;;;;;;;;;22.40;52.80;;;;;;5018516;28;19912;-36
2023/12/01 13:31:59;;;;;;;;;;;22.30;52.70;;;;;;5081960;28;19972;-38
2023/12/01 13:34:24;;;;;;;;;;;22.30;52.80;;;;;;5080118;28;19942;-38
2023/12/01 13:36:50;;;;;;;;;;;22.30;52.80;;;;;;5080271;28;19908;-38
2023/12/01 13:39:16;;;;;;;;;;;22.40;52.60;;;;;;5076623;28;20373;-38
2023/12/01 13:41:42;;;;;;;;;;;22.60;52.30;;;;;;5082179;28;20407;-38
2023/12/01 13:44:09;;;;;;;;;;;22.60;52.40;;;;;;5073883;28;19917;-39
2023/12/01 13:46:36;;;;;;;;;;;22.60;52.40;;;;;;5075704;28;19923;-39
2023/12/01 13:49:02;;;;;;;;;;;22.60;52.40;;;;;;5081471;28;19907;-36
2023/12/01 13:51:28;;;;;;;;;;;22.60;52.50;;;;;;5074864;28;19939;-38
2023/12/01 13:53:54;;;;;;;;;;;22.50;52.60;;;;;;5075413;28;19949;-39
2023/12/01 13:56:20;;;;;;;;;;;22.40;52.40;;;;;;5081825;28;19912;-39
2023/12/01 13:58:46;;;;;;;;;;;22.40;52.60;;;;;;5081430;28;19912;-39
2023/12/01 14:01:12;;;;;;;;;;;22.40;52.70;;;;;;5081528;28;19914;-38
2023/12/01 14:03:38;;;;;;;;;;;22.40;52.70;;;;;;5058329;28;19915;-39
2023/12/01 14:06:05;;;;;;;;;;;22.40;52.60;;;;;;5076978;28;20014;-38
2023/12/01 14:08:31;;;;;;;;;;;22.40;52.40;;;;;;5076597;28;19913;-38
2023/12/01 14:10:56;;;;;;;;;;;22.40;52.60;;;;;;5073546;28;19923;-38
2023/12/01 14:13:22;;;;;;;;;;;22.30;52.60;;;;;;5074450;28;19947;-38
2023/12/01 14:15:48;;;;;;;;;;;22.30;52.80;;;;;;5077048;28;19919;-38
2023/12/01 14:18:14;;;;;;;;;;;22.20;52.80;;;;;;5077509;28;21755;-38